Time;durP1;ratioP1;P1;durP2;ratioP2;P2;SDS_P1;SDS_P2;PMS_P1;PMS_P2;Temp;Humidity;BMP_temperature;BMP_pressure;BME280_temperature;BME280_humidity;BME280_pressure;Samples;Min_cycle;Max_cycle;Signal;HPM_P1;HPM_P2
2023/07/01 00:00:19;;;;;;;;;;;17.00;99.90;;;;;;5028593;28;19929;-73
2023/07/01 00:02:44;;;;;;;;;;;16.90;99.90;;;;;;5039111;28;19972;-72
2023/07/01 00:05:11;;;;;;;;;;;16.90;99.90;;;;;;5021435;28;20376;-72
2023/07/01 00:07:40;;;;;;;;;;;16.90;99.90;;;;;;5040798;28;20028;-72
2023/07/01 00:10:09;;;;;;;;;;;16.90;99.90;;;;;;5021710;28;20324;-73
2023/07/01 00:12:35;;;;;;;;;;;16.90;99.90;;;;;;5044878;28;19929;-72
2023/07/01 00:15:00;;;;;;;;;;;16.90;99.90;;;;;;5053403;28;19962;-73
2023/07/01 00:17:27;;;;;;;;;;;16.90;99.90;;;;;;5005873;28;20500;-72
2023/07/01 00:19:56;;;;;;;;;;;16.90;99.90;;;;;;5007899;28;19965;-73
2023/07/01 00:22:22;;;;;;;;;;;16.90;99.90;;;;;;5043765;28;19924;-73
2023/07/01 00:24:53;;;;;;;;;;;16.90;99.90;;;;;;5018715;28;19998;-73
2023/07/01 00:27:19;;;;;;;;;;;16.90;99.90;;;;;;5043192;28;19996;-72
2023/07/01 00:29:48;;;;;;;;;;;16.90;99.90;;;;;;5037309;28;19925;-74
2023/07/01 00:32:14;;;;;;;;;;;16.90;99.90;;;;;;5036870;28;19943;-73
2023/07/01 00:34:45;;;;;;;;;;;16.90;99.90;;;;;;5028791;28;20039;-73
2023/07/01 00:37:11;;;;;;;;;;;16.90;99.90;;;;;;5009312;28;20442;-74
2023/07/01 00:39:37;;;;;;;;;;;16.90;99.90;;;;;;5020432;28;20415;-73
2023/07/01 00:42:03;;;;;;;;;;;16.80;99.90;;;;;;5021299;28;19962;-74
2023/07/01 00:44:29;;;;;;;;;;;16.80;99.90;;;;;;5010903;28;19921;-72
2023/07/01 00:47:00;;;;;;;;;;;16.80;99.90;;;;;;5028429;28;19931;-73
2023/07/01 00:49:26;;;;;;;;;;;16.70;99.90;;;;;;5022596;28;19936;-73
2023/07/01 00:51:52;;;;;;;;;;;16.80;99.90;;;;;;5043290;28;20583;-73
2023/07/01 00:54:17;;;;;;;;;;;16.80;99.90;;;;;;5023284;28;20041;-73
2023/07/01 00:56:43;;;;;;;;;;;16.70;99.90;;;;;;5028270;28;19925;-73
2023/07/01 00:59:09;;;;;;;;;;;16.70;99.90;;;;;;5021284;28;20309;-73
2023/07/01 01:01:38;;;;;;;;;;;16.70;99.90;;;;;;5011128;28;19935;-72
2023/07/01 01:04:23;;;;;;;;;;;16.70;99.90;;;;;;5027242;28;19925;-73
2023/07/01 01:07:01;;;;;;;;;;;16.70;99.90;;;;;;5054338;28;19960;-73
2023/07/01 01:09:47;;;;;;;;;;;16.70;99.90;;;;;;5004675;28;19925;-73
2023/07/01 01:12:13;;;;;;;;;;;16.70;99.90;;;;;;5026912;28;19920;-73
2023/07/01 01:14:41;;;;;;;;;;;16.70;99.90;;;;;;5024291;28;20413;-73
2023/07/01 01:17:14;;;;;;;;;;;16.60;99.90;;;;;;5027005;28;20001;-74
2023/07/01 01:19:52;;;;;;;;;;;16.60;99.90;;;;;;5004294;28;19929;-74
2023/07/01 01:22:26;;;;;;;;;;;16.60;99.90;;;;;;5034940;28;20074;-73
2023/07/01 01:24:57;;;;;;;;;;;16.60;99.90;;;;;;5025321;28;19931;-73
2023/07/01 01:27:28;;;;;;;;;;;16.60;99.90;;;;;;5052418;28;19924;-73
2023/07/01 01:29:54;;;;;;;;;;;16.60;99.90;;;;;;5019650;28;20379;-73
2023/07/01 01:32:20;;;;;;;;;;;16.60;99.90;;;;;;5026578;28;19932;-74
2023/07/01 01:34:48;;;;;;;;;;;16.60;99.90;;;;;;5009878;28;20398;-73
2023/07/01 01:37:24;;;;;;;;;;;16.60;99.90;;;;;;5005392;28;19921;-75
2023/07/01 01:39:59;;;;;;;;;;;16.50;99.90;;;;;;5035787;28;19975;-73
2023/07/01 01:42:31;;;;;;;;;;;16.50;99.90;;;;;;5010223;28;20429;-73
2023/07/01 01:45:00;;;;;;;;;;;16.50;99.90;;;;;;5024483;28;19925;-73
2023/07/01 01:47:29;;;;;;;;;;;16.50;99.90;;;;;;5026237;28;19920;-73
2023/07/01 01:50:10;;;;;;;;;;;16.50;99.90;;;;;;5049162;28;20248;-74
2023/07/01 01:52:41;;;;;;;;;;;16.50;99.90;;;;;;5036336;28;19936;-74
2023/07/01 01:55:23;;;;;;;;;;;16.50;99.90;;;;;;5036807;28;20008;-73
2023/07/01 01:57:51;;;;;;;;;;;16.50;99.90;;;;;;5020873;28;19947;-73
2023/07/01 02:00:39;;;;;;;;;;;16.80;99.90;;;;;;5036006;28;20426;-74
2023/07/01 02:03:25;;;;;;;;;;;16.50;99.90;;;;;;5036463;28;20001;-73
2023/07/01 02:06:07;;;;;;;;;;;16.50;99.90;;;;;;5014536;28;19976;-73
2023/07/01 02:08:36;;;;;;;;;;;16.50;99.90;;;;;;5014672;28;19998;-74
2023/07/01 02:11:06;;;;;;;;;;;16.50;99.90;;;;;;5035432;28;20494;-73
2023/07/01 02:13:44;;;;;;;;;;;16.50;99.90;;;;;;5024973;28;19921;-75
2023/07/01 02:16:22;;;;;;;;;;;16.50;99.90;;;;;;5037607;28;19924;-74
2023/07/01 02:19:00;;;;;;;;;;;16.50;99.90;;;;;;5006006;28;19927;-74
2023/07/01 02:21:57;;;;;;;;;;;15.30;99.90;;;;;;5014372;28;20371;-74
2023/07/01 02:27:22;;;;;;;;;;;16.50;99.90;;;;;;5034114;28;19960;-73
2023/07/01 02:30:09;;;;;;;;;;;16.50;99.90;;;;;;5038152;28;19947;-74
2023/07/01 02:35:51;;;;;;;;;;;16.50;99.90;;;;;;5026505;28;19978;-75
2023/07/01 02:38:22;;;;;;;;;;;16.50;99.90;;;;;;5041285;28;19931;-74
2023/07/01 02:40:58;;;;;;;;;;;16.50;99.90;;;;;;5038455;28;19958;-73
2023/07/01 02:43:41;;;;;;;;;;;16.50;99.90;;;;;;5024271;28;19928;-74
2023/07/01 02:46:31;;;;;;;;;;;16.60;99.90;;;;;;5037875;28;19932;-75
2023/07/01 02:52:44;;;;;;;;;;;16.60;99.90;;;;;;5001662;28;20370;-74
2023/07/01 02:55:32;;;;;;;;;;;16.60;99.90;;;;;;5035487;28;19925;-75
2023/07/01 02:58:22;;;;;;;;;;;16.60;99.90;;;;;;5021585;28;19916;-74
2023/07/01 03:01:34;;;;;;;;;;;16.60;99.90;;;;;;4999001;28;20435;-74
2023/07/01 03:04:18;;;;;;;;;;;16.60;99.90;;;;;;5002184;28;20035;-74
2023/07/01 03:07:00;;;;;;;;;;;16.60;99.90;;;;;;4996115;28;19980;-74
2023/07/01 03:09:55;;;;;;;;;;;16.60;99.90;;;;;;4987416;28;19916;-74
2023/07/01 03:12:41;;;;;;;;;;;16.60;99.90;;;;;;5017361;28;20068;-73
2023/07/01 03:18:46;;;;;;;;;;;16.60;99.90;;;;;;5004343;28;19983;-72
2023/07/01 03:21:56;;;;;;;;;;;16.60;99.90;;;;;;5002509;28;19928;-75
2023/07/01 03:25:07;;;;;;;;;;;16.50;99.90;;;;;;5001585;28;19929;-72
2023/07/01 03:27:59;;;;;;;;;;;16.70;99.90;;;;;;5002414;28;19925;-73
2023/07/01 03:30:40;;;;;;;;;;;16.60;99.90;;;;;;5016713;28;19972;-75
2023/07/01 03:33:25;;;;;;;;;;;16.70;99.90;;;;;;5035088;28;19924;-75
2023/07/01 03:36:21;;;;;;;;;;;16.60;99.90;;;;;;5013939;28;20018;-74
2023/07/01 03:38:48;;;;;;;;;;;16.60;99.90;;;;;;5014483;28;19921;-75
2023/07/01 03:41:27;;;;;;;;;;;16.60;99.90;;;;;;5043683;28;19945;-73
2023/07/01 03:44:00;;;;;;;;;;;16.60;99.90;;;;;;5016594;28;19981;-74
2023/07/01 03:46:40;;;;;;;;;;;16.60;99.90;;;;;;5009229;28;19929;-75
2023/07/01 03:49:06;;;;;;;;;;;16.60;99.90;;;;;;5040284;28;20324;-75
2023/07/01 03:51:59;;;;;;;;;;;16.70;99.90;;;;;;5039507;28;19978;-74
2023/07/01 03:54:41;;;;;;;;;;;16.70;99.90;;;;;;5037969;28;19932;-73
2023/07/01 03:57:09;;;;;;;;;;;16.70;99.90;;;;;;5006472;28;19987;-74
2023/07/01 03:59:41;;;;;;;;;;;16.70;99.90;;;;;;5009365;28;19971;-73
2023/07/01 04:02:14;;;;;;;;;;;16.70;99.90;;;;;;5037669;28;19936;-74
2023/07/01 04:05:09;;;;;;;;;;;16.70;99.90;;;;;;5039723;28;19919;-73
2023/07/01 04:07:46;;;;;;;;;;;16.70;99.90;;;;;;5029026;28;19932;-73
2023/07/01 04:10:18;;;;;;;;;;;16.70;99.90;;;;;;5035164;28;19932;-73
2023/07/01 04:12:52;;;;;;;;;;;16.80;99.90;;;;;;5022355;28;19925;-73
2023/07/01 04:15:19;;;;;;;;;;;16.80;99.90;;;;;;5028826;28;19925;-73
2023/07/01 04:18:03;;;;;;;;;;;16.80;99.90;;;;;;5052397;28;19923;-74
2023/07/01 04:20:35;;;;;;;;;;;16.80;99.90;;;;;;5042142;28;19924;-73
2023/07/01 04:23:01;;;;;;;;;;;16.80;99.90;;;;;;5011744;28;20008;-73
2023/07/01 04:25:28;;;;;;;;;;;16.80;99.90;;;;;;5029268;28;19932;-73
2023/07/01 04:27:57;;;;;;;;;;;16.80;99.90;;;;;;5029246;28;19933;-73
2023/07/01 04:30:23;;;;;;;;;;;16.90;99.90;;;;;;5045597;28;19950;-73
2023/07/01 04:32:48;;;;;;;;;;;16.90;99.90;;;;;;5044408;28;20346;-73
2023/07/01 04:35:17;;;;;;;;;;;17.00;99.90;;;;;;5043449;28;20016;-74
2023/07/01 04:37:43;;;;;;;;;;;17.10;99.90;;;;;;5028747;28;19924;-73
2023/07/01 04:40:09;;;;;;;;;;;17.10;99.90;;;;;;5028467;28;19921;-74
2023/07/01 04:42:35;;;;;;;;;;;17.20;99.90;;;;;;5022161;28;20027;-74
2023/07/01 04:45:03;;;;;;;;;;;17.20;99.90;;;;;;5023778;28;19995;-69
2023/07/01 04:47:45;;;;;;;;;;;17.20;99.90;;;;;;5026487;28;19925;-70
2023/07/01 04:50:11;;;;;;;;;;;17.20;99.90;;;;;;5053032;28;19924;-70
2023/07/01 04:52:42;;;;;;;;;;;17.20;99.90;;;;;;5039536;28;19929;-71
2023/07/01 04:55:08;;;;;;;;;;;17.20;99.90;;;;;;5038982;28;19927;-71
2023/07/01 05:00:33;;;;;;;;;;;17.30;99.90;;;;;;5024890;28;19935;-72
2023/07/01 05:03:08;;;;;;;;;;;17.30;99.90;;;;;;4989949;28;20314;-72
2023/07/01 05:05:45;;;;;;;;;;;17.20;99.90;;;;;;5005336;28;19971;-71
2023/07/01 05:08:14;;;;;;;;;;;17.30;99.90;;;;;;5022274;28;19963;-70
2023/07/01 05:10:43;;;;;;;;;;;17.40;99.90;;;;;;5021452;28;19925;-72
2023/07/01 05:13:18;;;;;;;;;;;17.30;99.90;;;;;;5052783;28;19959;-70
2023/07/01 05:15:52;;;;;;;;;;;17.30;99.90;;;;;;5027042;28;19964;-72
2023/07/01 05:18:45;;;;;;;;;;;17.30;99.90;;;;;;5015065;28;19927;-72
2023/07/01 05:21:24;;;;;;;;;;;17.40;99.90;;;;;;5027152;28;19921;-72
2023/07/01 05:23:55;;;;;;;;;;;17.30;99.90;;;;;;5006185;28;20011;-71
2023/07/01 05:26:24;;;;;;;;;;;17.30;99.90;;;;;;5036508;28;19927;-70
2023/07/01 05:29:00;;;;;;;;;;;17.40;99.90;;;;;;5037390;28;20438;-70
2023/07/01 05:31:36;;;;;;;;;;;17.30;99.90;;;;;;5036559;28;19971;-71
2023/07/01 05:34:17;;;;;;;;;;;17.30;99.90;;;;;;5011608;28;19944;-71
2023/07/01 05:37:06;;;;;;;;;;;17.40;99.90;;;;;;5037258;28;19952;-71
2023/07/01 05:39:55;;;;;;;;;;;17.30;99.90;;;;;;5016388;28;21048;-71
2023/07/01 05:42:21;;;;;;;;;;;17.40;99.90;;;;;;5017548;28;19924;-70
2023/07/01 05:44:53;;;;;;;;;;;17.40;99.90;;;;;;5006803;28;19925;-69
2023/07/01 05:47:43;;;;;;;;;;;17.30;99.90;;;;;;5011147;28;19932;-73
2023/07/01 05:57:13;;;;;;;;;;;17.60;99.90;;;;;;4998687;28;19925;-73
2023/07/01 06:00:04;;;;;;;;;;;17.50;99.90;;;;;;4978972;28;19963;-73
2023/07/01 06:06:10;;;;;;;;;;;17.50;99.90;;;;;;4995694;28;20017;-75
2023/07/01 06:09:04;;;;;;;;;;;17.50;99.90;;;;;;4966333;28;20075;-75
2023/07/01 06:11:38;;;;;;;;;;;17.50;99.90;;;;;;4948494;28;19966;-73
2023/07/01 06:14:33;;;;;;;;;;;17.60;99.90;;;;;;4996937;28;20811;-73
2023/07/01 06:17:47;;;;;;;;;;;17.60;99.90;;;;;;4998540;28;20322;-72
2023/07/01 06:21:06;;;;;;;;;;;15.20;99.90;;;;;;4978171;28;19933;-75
2023/07/01 06:23:51;;;;;;;;;;;17.60;99.90;;;;;;4989250;28;20335;-72
2023/07/01 06:30:07;;;;;;;;;;;17.60;99.90;;;;;;4995663;28;20024;-74
2023/07/01 06:35:56;;;;;;;;;;;17.70;99.90;;;;;;4997485;28;20065;-75
2023/07/01 06:39:21;;;;;;;;;;;17.60;99.90;;;;;;4980167;28;20592;-73
2023/07/01 06:42:23;;;;;;;;;;;17.70;99.90;;;;;;4979782;28;19964;-74
2023/07/01 06:48:23;;;;;;;;;;;19.80;99.90;;;;;;4995091;28;19921;-74
2023/07/01 06:51:46;;;;;;;;;;;17.70;99.90;;;;;;4997799;28;20023;-74
2023/07/01 06:54:50;;;;;;;;;;;17.70;99.90;;;;;;4997786;28;20512;-73
2023/07/01 06:57:31;;;;;;;;;;;17.70;99.90;;;;;;4961881;28;19971;-72
2023/07/01 07:00:24;;;;;;;;;;;17.60;99.90;;;;;;5010069;28;19983;-74
2023/07/01 07:06:38;;;;;;;;;;;17.60;99.90;;;;;;5034367;28;20341;-73
2023/07/01 07:12:47;;;;;;;;;;;17.70;99.90;;;;;;5018868;28;20316;-75
2023/07/01 07:15:17;;;;;;;;;;;17.70;99.90;;;;;;5016858;28;22031;-74
2023/07/01 07:18:12;;;;;;;;;;;17.80;99.90;;;;;;5031411;28;19978;-74
2023/07/01 07:21:47;;;;;;;;;;;17.80;99.90;;;;;;5036756;28;19932;-74
2023/07/01 07:24:42;;;;;;;;;;;17.60;99.90;;;;;;5025698;28;19951;-74
2023/07/01 07:28:01;;;;;;;;;;;17.70;99.90;;;;;;5010126;28;20075;-73
2023/07/01 07:33:58;;;;;;;;;;;17.70;99.90;;;;;;5016596;28;20342;-74
2023/07/01 07:37:12;;;;;;;;;;;18.50;99.90;;;;;;5005360;28;20073;-73
2023/07/01 07:42:55;;;;;;;;;;;17.90;99.90;;;;;;4987577;28;19935;-71
2023/07/01 07:45:42;;;;;;;;;;;17.90;99.90;;;;;;5005808;28;19979;-72
2023/07/01 07:48:14;;;;;;;;;;;17.90;99.90;;;;;;5007555;28;19925;-73
2023/07/01 07:50:55;;;;;;;;;;;17.90;99.90;;;;;;5005064;28;19960;-72
2023/07/01 07:53:34;;;;;;;;;;;17.90;99.90;;;;;;5017029;28;19972;-74
2023/07/01 07:56:16;;;;;;;;;;;17.90;99.90;;;;;;4983635;28;19972;-75
2023/07/01 07:58:51;;;;;;;;;;;17.90;99.90;;;;;;5016442;28;19917;-73
2023/07/01 08:01:17;;;;;;;;;;;17.90;99.90;;;;;;4999960;28;19932;-72
2023/07/01 08:03:54;;;;;;;;;;;17.90;99.90;;;;;;5005368;28;20016;-73
2023/07/01 08:06:26;;;;;;;;;;;17.90;99.90;;;;;;4990239;28;19928;-73
2023/07/01 08:09:00;;;;;;;;;;;17.90;99.90;;;;;;4986072;28;19936;-73
2023/07/01 08:11:26;;;;;;;;;;;17.90;99.90;;;;;;4986735;28;19932;-72
2023/07/01 08:14:10;;;;;;;;;;;17.90;99.90;;;;;;5005267;28;19933;-73
2023/07/01 08:16:39;;;;;;;;;;;17.90;99.90;;;;;;5007173;28;20815;-72
2023/07/01 08:19:05;;;;;;;;;;;17.90;99.90;;;;;;4998647;28;21930;-73
2023/07/01 08:21:35;;;;;;;;;;;17.90;99.90;;;;;;5017605;28;20026;-72
2023/07/01 08:24:14;;;;;;;;;;;17.90;99.90;;;;;;5005835;28;20410;-75
2023/07/01 08:26:47;;;;;;;;;;;18.00;99.90;;;;;;5002090;28;19976;-73
2023/07/01 08:29:14;;;;;;;;;;;18.00;99.90;;;;;;5006612;28;19925;-72
2023/07/01 08:34:31;;;;;;;;;;;18.00;99.90;;;;;;5013248;28;19924;-74
2023/07/01 08:37:06;;;;;;;;;;;18.00;99.90;;;;;;5027291;28;20021;-73
2023/07/01 08:39:50;;;;;;;;;;;18.00;99.90;;;;;;5012778;28;20022;-74
2023/07/01 08:46:31;;;;;;;;;;;18.30;99.90;;;;;;5038539;28;19920;-74
2023/07/01 08:52:41;;;;;;;;;;;18.30;99.90;;;;;;5038259;28;19920;-75
2023/07/01 08:55:28;;;;;;;;;;;17.10;99.90;;;;;;5006407;28;19960;-74
2023/07/01 08:58:45;;;;;;;;;;;18.30;99.90;;;;;;5038153;28;19924;-76
2023/07/01 09:01:36;;;;;;;;;;;18.30;99.90;;;;;;5038855;28;19931;-77
2023/07/01 09:11:01;;;;;;;;;;;18.60;99.90;;;;;;5020345;28;19979;-75
2023/07/01 09:13:47;;;;;;;;;;;18.80;99.90;;;;;;5003386;28;19967;-75
2023/07/01 09:16:34;;;;;;;;;;;18.90;99.90;;;;;;5039429;28;19932;-73
2023/07/01 09:19:30;;;;;;;;;;;19.10;99.90;;;;;;5027179;28;19957;-76
2023/07/01 09:23:13;;;;;;;;;;;19.10;99.90;;;;;;5004941;28;19916;-75
2023/07/01 09:29:49;;;;;;;;;;;19.10;99.90;;;;;;4982168;28;19977;-74
2023/07/01 09:33:24;;;;;;;;;;;19.10;99.90;;;;;;4904139;28;20072;-77
2023/07/01 09:36:33;;;;;;;;;;;19.10;99.90;;;;;;4882003;29;20382;-76
2023/07/01 09:39:19;;;;;;;;;;;19.00;99.90;;;;;;4898834;29;19927;-77
2023/07/01 09:42:13;;;;;;;;;;;19.00;99.90;;;;;;4882921;29;20124;-75
2023/07/01 09:45:14;;;;;;;;;;;19.10;99.90;;;;;;4859154;29;19923;-76
2023/07/01 09:47:55;;;;;;;;;;;19.10;99.90;;;;;;4848784;29;19927;-78
2023/07/01 09:50:57;;;;;;;;;;;19.10;99.90;;;;;;4834277;29;19939;-75
2023/07/01 09:54:19;;;;;;;;;;;19.20;99.90;;;;;;4846370;29;19999;-76
2023/07/01 09:57:27;;;;;;;;;;;19.20;99.90;;;;;;4860113;29;20314;-75
2023/07/01 10:00:17;;;;;;;;;;;19.20;99.90;;;;;;4830695;29;20270;-76
2023/07/01 10:02:58;;;;;;;;;;;19.50;99.90;;;;;;4855878;29;20779;-76
2023/07/01 10:05:23;;;;;;;;;;;19.00;99.90;;;;;;4869323;29;19927;-73
2023/07/01 10:07:49;;;;;;;;;;;19.00;99.90;;;;;;4927051;28;20427;-73
2023/07/01 10:10:16;;;;;;;;;;;19.00;99.90;;;;;;4990816;28;19927;-72
2023/07/01 10:12:42;;;;;;;;;;;19.20;99.90;;;;;;4984125;28;20051;-73
2023/07/01 10:15:22;;;;;;;;;;;19.50;99.90;;;;;;4983524;28;19983;-74
2023/07/01 10:18:38;;;;;;;;;;;20.00;99.90;;;;;;4984694;28;19922;-76
2023/07/01 10:21:23;;;;;;;;;;;20.00;99.90;;;;;;5001310;28;19925;-78
2023/07/01 10:23:49;;;;;;;;;;;20.90;99.90;;;;;;4984426;28;19925;-75
2023/07/01 10:26:48;;;;;;;;;;;20.60;99.90;;;;;;5000075;28;19933;-77
2023/07/01 10:29:26;;;;;;;;;;;20.30;99.90;;;;;;4996294;28;20030;-78
2023/07/01 10:32:13;;;;;;;;;;;20.70;99.90;;;;;;5018726;28;20011;-76
2023/07/01 10:35:00;;;;;;;;;;;20.80;99.90;;;;;;5022785;28;20866;-76
2023/07/01 10:37:34;;;;;;;;;;;22.40;99.90;;;;;;5023048;28;19931;-75
2023/07/01 10:40:07;;;;;;;;;;;20.70;99.90;;;;;;5050226;28;19930;-76
2023/07/01 10:42:34;;;;;;;;;;;22.10;99.90;;;;;;5035353;28;19931;-73
2023/07/01 10:45:32;;;;;;;;;;;20.30;99.90;;;;;;5033870;28;20279;-72
2023/07/01 10:48:20;;;;;;;;;;;20.20;99.90;;;;;;5014056;28;19925;-73
2023/07/01 10:51:17;;;;;;;;;;;18.20;99.90;;;;;;4992136;28;20011;-72
2023/07/01 10:53:59;;;;;;;;;;;19.80;99.90;;;;;;5031273;28;20007;-72
2023/07/01 10:56:37;;;;;;;;;;;19.80;99.90;;;;;;5038168;28;19932;-72
2023/07/01 10:59:29;;;;;;;;;;;19.60;99.90;;;;;;5038244;28;19925;-72
2023/07/01 11:02:05;;;;;;;;;;;19.50;99.90;;;;;;5008599;28;19987;-73
2023/07/01 11:04:51;;;;;;;;;;;19.40;99.90;;;;;;5022994;28;20393;-72
2023/07/01 11:07:41;;;;;;;;;;;19.40;99.90;;;;;;4958862;28;20336;-74
2023/07/01 11:10:27;;;;;;;;;;;19.50;99.90;;;;;;4959481;28;19953;-72
2023/07/01 11:12:59;;;;;;;;;;;19.70;99.90;;;;;;4943142;28;19976;-72
2023/07/01 11:15:25;;;;;;;;;;;19.70;99.90;;;;;;4927609;28;19926;-72
2023/07/01 11:17:54;;;;;;;;;;;19.70;99.90;;;;;;4941483;28;19922;-74
2023/07/01 11:20:20;;;;;;;;;;;19.70;99.90;;;;;;4943360;28;19929;-73
2023/07/01 11:22:47;;;;;;;;;;;19.70;99.90;;;;;;4942156;28;19930;-72
2023/07/01 11:25:18;;;;;;;;;;;19.70;99.90;;;;;;4958458;28;20447;-72
2023/07/01 11:27:53;;;;;;;;;;;19.70;99.90;;;;;;4957998;28;19933;-72
2023/07/01 11:30:30;;;;;;;;;;;19.60;99.90;;;;;;4977244;28;19959;-71
2023/07/01 11:33:14;;;;;;;;;;;19.60;99.90;;;;;;4978892;28;19936;-71
2023/07/01 11:35:52;;;;;;;;;;;19.50;99.90;;;;;;4942432;28;20472;-72
2023/07/01 11:38:29;;;;;;;;;;;19.50;99.90;;;;;;4940409;28;20350;-72
2023/07/01 11:41:02;;;;;;;;;;;19.50;99.90;;;;;;4986258;28;20276;-75
2023/07/01 11:43:38;;;;;;;;;;;19.60;99.90;;;;;;5002624;28;19975;-71
2023/07/01 11:46:16;;;;;;;;;;;20.00;99.90;;;;;;4985517;28;20356;-73
2023/07/01 11:48:48;;;;;;;;;;;20.40;99.90;;;;;;5002525;28;19927;-73
2023/07/01 11:51:40;;;;;;;;;;;20.90;99.90;;;;;;5016051;28;19975;-73
2023/07/01 11:54:05;;;;;;;;;;;21.30;99.90;;;;;;4985351;28;20520;-72
2023/07/01 11:56:31;;;;;;;;;;;21.60;99.90;;;;;;5003461;28;20027;-73
2023/07/01 11:58:57;;;;;;;;;;;21.80;99.90;;;;;;4971889;28;19925;-72
2023/07/01 12:01:23;;;;;;;;;;;21.70;99.90;;;;;;4989773;28;19921;-72
2023/07/01 12:03:55;;;;;;;;;;;21.60;99.90;;;;;;5002549;28;20090;-72
2023/07/01 12:06:25;;;;;;;;;;;21.50;99.90;;;;;;5024627;28;20383;-72
2023/07/01 12:08:57;;;;;;;;;;;21.20;99.90;;;;;;5021723;28;20386;-72
2023/07/01 12:11:24;;;;;;;;;;;21.10;99.90;;;;;;5028556;28;19943;-72
2023/07/01 12:13:52;;;;;;;;;;;20.90;99.90;;;;;;5038497;28;19921;-72
2023/07/01 12:16:18;;;;;;;;;;;20.90;99.90;;;;;;5004845;28;19925;-72
2023/07/01 12:18:44;;;;;;;;;;;20.70;99.90;;;;;;5028846;28;20303;-74
2023/07/01 12:21:10;;;;;;;;;;;20.60;99.90;;;;;;5022019;28;19925;-71
2023/07/01 12:23:43;;;;;;;;;;;20.50;99.90;;;;;;5012259;28;20485;-72
2023/07/01 12:26:10;;;;;;;;;;;20.50;99.90;;;;;;4994790;28;19924;-72
2023/07/01 12:28:37;;;;;;;;;;;20.60;99.90;;;;;;5028764;28;19929;-73
2023/07/01 12:31:04;;;;;;;;;;;20.70;99.90;;;;;;5028515;28;19924;-73
2023/07/01 12:33:29;;;;;;;;;;;20.70;99.90;;;;;;5006031;28;19921;-72
2023/07/01 12:36:02;;;;;;;;;;;20.80;99.90;;;;;;5028148;28;19931;-72
2023/07/01 12:38:29;;;;;;;;;;;20.90;99.90;;;;;;5022852;28;19925;-72
2023/07/01 12:40:54;;;;;;;;;;;20.90;99.90;;;;;;5012017;28;20379;-72
2023/07/01 12:43:22;;;;;;;;;;;20.90;99.90;;;;;;5012135;28;19980;-74
2023/07/01 12:45:48;;;;;;;;;;;20.80;99.90;;;;;;5044736;28;20626;-72
2023/07/01 12:48:14;;;;;;;;;;;20.80;99.90;;;;;;5042777;28;19924;-73
2023/07/01 12:50:39;;;;;;;;;;;20.60;99.90;;;;;;5020623;28;20416;-73
2023/07/01 12:53:05;;;;;;;;;;;20.50;99.90;;;;;;5027140;28;20314;-72
2023/07/01 12:55:31;;;;;;;;;;;20.40;99.90;;;;;;5027884;28;20361;-71
2023/07/01 12:58:02;;;;;;;;;;;20.10;99.90;;;;;;5007597;28;20445;-72
2023/07/01 13:00:34;;;;;;;;;;;20.00;99.90;;;;;;5027620;28;19928;-72
2023/07/01 13:02:59;;;;;;;;;;;19.90;99.90;;;;;;5044346;28;19944;-72
2023/07/01 13:05:25;;;;;;;;;;;19.90;99.90;;;;;;5026251;28;19971;-72
2023/07/01 13:07:52;;;;;;;;;;;19.90;99.90;;;;;;5006387;28;19931;-73
2023/07/01 13:10:18;;;;;;;;;;;19.80;99.90;;;;;;5010345;28;19924;-73
2023/07/01 13:12:45;;;;;;;;;;;19.70;99.90;;;;;;5021852;28;19994;-71
2023/07/01 13:15:18;;;;;;;;;;;19.60;99.90;;;;;;5027880;28;20605;-73
2023/07/01 13:17:45;;;;;;;;;;;19.40;99.90;;;;;;5043713;28;19921;-73
2023/07/01 13:20:12;;;;;;;;;;;19.40;99.90;;;;;;5021023;28;19979;-74
2023/07/01 13:22:37;;;;;;;;;;;19.20;99.90;;;;;;5034801;28;19952;-73
2023/07/01 13:25:16;;;;;;;;;;;19.20;99.90;;;;;;5027069;28;19978;-72
2023/07/01 13:27:42;;;;;;;;;;;19.40;99.90;;;;;;5027738;28;19928;-73
2023/07/01 13:30:27;;;;;;;;;;;19.50;99.90;;;;;;5022604;28;20425;-73
2023/07/01 13:32:54;;;;;;;;;;;19.70;99.90;;;;;;5031845;28;19931;-73
2023/07/01 13:35:23;;;;;;;;;;;19.80;99.90;;;;;;5021390;28;19928;-73
2023/07/01 13:38:06;;;;;;;;;;;19.90;99.90;;;;;;5019621;28;19931;-73
2023/07/01 13:40:34;;;;;;;;;;;19.90;99.90;;;;;;5027321;28;19928;-73
2023/07/01 13:43:03;;;;;;;;;;;19.90;99.90;;;;;;5020486;28;19979;-73
2023/07/01 13:45:29;;;;;;;;;;;19.90;99.90;;;;;;5036157;28;20323;-72
2023/07/01 13:47:54;;;;;;;;;;;20.10;99.90;;;;;;5005876;28;19925;-73
2023/07/01 13:50:29;;;;;;;;;;;20.20;99.90;;;;;;5037841;28;20382;-72
2023/07/01 13:52:57;;;;;;;;;;;20.10;99.90;;;;;;5020502;28;19928;-73
2023/07/01 13:55:24;;;;;;;;;;;20.10;99.90;;;;;;5036364;28;19925;-73
2023/07/01 13:57:51;;;;;;;;;;;20.00;99.90;;;;;;5034601;28;19928;-72
2023/07/01 14:00:38;;;;;;;;;;;20.10;99.90;;;;;;5027040;28;19932;-73
2023/07/01 14:03:06;;;;;;;;;;;19.00;99.90;;;;;;5006311;28;19931;-73
2023/07/01 14:05:38;;;;;;;;;;;20.50;99.90;;;;;;5053067;28;20793;-73
2023/07/01 14:08:03;;;;;;;;;;;20.60;99.90;;;;;;5010571;28;20000;-73
2023/07/01 14:10:35;;;;;;;;;;;21.00;99.90;;;;;;5053126;28;19920;-73
2023/07/01 14:13:02;;;;;;;;;;;18.90;99.90;;;;;;5026863;28;19925;-73
2023/07/01 14:15:48;;;;;;;;;;;21.30;99.90;;;;;;5035824;28;20394;-74
2023/07/01 14:18:16;;;;;;;;;;;21.60;99.90;;;;;;5036644;28;20345;-73
2023/07/01 14:20:54;;;;;;;;;;;21.70;99.90;;;;;;5051313;28;19952;-74
2023/07/01 14:23:21;;;;;;;;;;;21.90;99.90;;;;;;5026315;28;19925;-74
2023/07/01 14:25:53;;;;;;;;;;;22.00;99.90;;;;;;5026044;28;19975;-72
2023/07/01 14:28:25;;;;;;;;;;;21.90;99.90;;;;;;5034746;28;20015;-73
2023/07/01 14:31:09;;;;;;;;;;;21.90;99.90;;;;;;5026663;28;19932;-75
2023/07/01 14:33:50;;;;;;;;;;;21.70;99.90;;;;;;5034299;28;20327;-73
2023/07/01 14:36:20;;;;;;;;;;;21.80;99.90;;;;;;5018043;28;19921;-73
2023/07/01 14:38:46;;;;;;;;;;;21.70;99.90;;;;;;5041850;28;19971;-73
2023/07/01 14:41:25;;;;;;;;;;;21.70;99.90;;;;;;5019283;28;19929;-74
2023/07/01 14:44:00;;;;;;;;;;;21.50;99.90;;;;;;5011177;28;19929;-72
2023/07/01 14:46:29;;;;;;;;;;;21.40;99.90;;;;;;5021066;28;20038;-73
2023/07/01 14:48:55;;;;;;;;;;;21.40;99.90;;;;;;5041596;28;19925;-73
2023/07/01 14:51:20;;;;;;;;;;;21.30;99.90;;;;;;5036234;28;19967;-73
2023/07/01 14:53:47;;;;;;;;;;;21.20;99.90;;;;;;5042383;28;19921;-73
2023/07/01 14:56:24;;;;;;;;;;;21.20;99.90;;;;;;5006382;28;19935;-72
2023/07/01 14:58:52;;;;;;;;;;;21.10;99.90;;;;;;5004330;28;20287;-72
2023/07/01 15:01:21;;;;;;;;;;;20.90;99.90;;;;;;5054102;28;19925;-73
2023/07/01 15:03:46;;;;;;;;;;;20.70;99.90;;;;;;5053323;28;19928;-72
2023/07/01 15:06:15;;;;;;;;;;;20.50;99.90;;;;;;5053246;28;19935;-72
2023/07/01 15:08:42;;;;;;;;;;;20.40;99.90;;;;;;4986585;28;19929;-72
2023/07/01 15:11:09;;;;;;;;;;;20.30;99.90;;;;;;5021841;28;20012;-72
2023/07/01 15:13:35;;;;;;;;;;;20.30;99.90;;;;;;4989741;28;19928;-72
2023/07/01 15:16:05;;;;;;;;;;;20.30;99.90;;;;;;5039184;28;20376;-71
2023/07/01 15:18:33;;;;;;;;;;;20.30;99.90;;;;;;5043620;28;19968;-72
2023/07/01 15:20:59;;;;;;;;;;;20.20;99.90;;;;;;5053606;28;20435;-72
2023/07/01 15:23:25;;;;;;;;;;;20.20;99.90;;;;;;5016395;28;20051;-73
2023/07/01 15:25:51;;;;;;;;;;;20.30;99.90;;;;;;5041390;28;19920;-72
2023/07/01 15:28:17;;;;;;;;;;;20.30;99.90;;;;;;5042803;28;19925;-72
2023/07/01 15:30:43;;;;;;;;;;;20.30;99.90;;;;;;5021532;28;20372;-71
2023/07/01 15:33:09;;;;;;;;;;;20.20;99.90;;;;;;5023428;28;20015;-71
2023/07/01 15:35:35;;;;;;;;;;;20.10;99.90;;;;;;5027633;28;20327;-71
2023/07/01 15:38:01;;;;;;;;;;;19.90;99.90;;;;;;5023885;28;20245;-70
2023/07/01 15:40:27;;;;;;;;;;;19.80;99.90;;;;;;4990921;28;20393;-70
2023/07/01 15:42:53;;;;;;;;;;;19.70;99.90;;;;;;5023681;28;19998;-70
2023/07/01 15:45:20;;;;;;;;;;;19.60;99.90;;;;;;5022950;28;19921;-71
2023/07/01 15:47:45;;;;;;;;;;;19.60;99.90;;;;;;5057056;28;20016;-71
2023/07/01 15:50:11;;;;;;;;;;;19.60;99.90;;;;;;5024976;28;20443;-71
2023/07/01 15:52:37;;;;;;;;;;;19.60;99.90;;;;;;5022038;28;19941;-70
2023/07/01 15:55:03;;;;;;;;;;;19.50;99.90;;;;;;5011110;28;19929;-70
2023/07/01 15:57:29;;;;;;;;;;;19.60;99.90;;;;;;5023450;28;19983;-71
2023/07/01 15:59:56;;;;;;;;;;;19.60;99.90;;;;;;5023527;28;19920;-71
2023/07/01 16:02:22;;;;;;;;;;;19.50;99.90;;;;;;5045489;28;19921;-70
2023/07/01 16:04:48;;;;;;;;;;;19.50;99.90;;;;;;5024732;28;20391;-70
2023/07/01 16:07:17;;;;;;;;;;;19.50;99.90;;;;;;5022728;28;19932;-72
2023/07/01 16:09:43;;;;;;;;;;;19.50;99.90;;;;;;5027899;28;20287;-70
2023/07/01 16:12:18;;;;;;;;;;;19.50;99.90;;;;;;5028420;28;19932;-70
2023/07/01 16:14:50;;;;;;;;;;;19.50;99.90;;;;;;5027740;28;19921;-70
2023/07/01 16:17:16;;;;;;;;;;;19.50;99.90;;;;;;5007086;28;19927;-69
2023/07/01 16:19:43;;;;;;;;;;;19.50;99.90;;;;;;5023600;28;19924;-70